Time;durP1;ratioP1;P1;durP2;ratioP2;P2;SDS_P1;SDS_P2;PMS_P1;PMS_P2;Temp;Humidity;BMP_temperature;BMP_pressure;BME280_temperature;BME280_humidity;BME280_pressure;Samples;Min_cycle;Max_cycle;Signal;HPM_P1;HPM_P2
2022/05/12 00:00:48;;;;;;;;;;;;;;;16.25;82.12;99952.03;6104807;23;20335;-95
2022/05/12 00:03:15;;;;;;;;;;;;;;;16.30;83.44;99958.97;6129609;23;20208;-90
2022/05/12 00:05:41;;;;;;;;;;;;;;;16.25;84.97;99957.63;6153682;23;20239;-90
2022/05/12 00:08:07;;;;;;;;;;;;;;;16.21;85.32;99956.28;6153737;23;19940;-90
2022/05/12 00:10:32;;;;;;;;;;;;;;;16.19;85.19;99947.56;6128339;23;19923;-89
2022/05/12 00:12:58;;;;;;;;;;;;;;;16.21;84.56;99945.06;6127107;23;19917;-90
2022/05/12 00:15:24;;;;;;;;;;;;;;;16.13;85.69;99943.88;6127641;23;19916;-89
2022/05/12 00:17:50;;;;;;;;;;;;;;;16.15;84.84;99942.16;6153486;23;20251;-90
2022/05/12 00:20:17;;;;;;;;;;;;;;;16.07;86.97;99937.38;6102213;23;19948;-90
2022/05/12 00:22:42;;;;;;;;;;;;;;;15.94;88.08;99936.84;6153688;23;19921;-90
2022/05/12 00:25:18;;;;;;;;;;;;;;;15.92;88.58;99930.97;6152606;23;19962;-94
2022/05/12 00:27:44;;;;;;;;;;;;;;;15.86;89.59;99931.63;6103875;23;19924;-95
2022/05/12 00:30:10;;;;;;;;;;;;;;;15.81;89.30;99926.66;6104218;23;19921;-96
2022/05/12 00:32:43;;;;;;;;;;;;;;;15.84;88.64;99934.13;6104690;23;20211;-95
2022/05/12 00:35:09;;;;;;;;;;;;;;;15.82;87.32;99936.63;6129318;23;19995;-93
2022/05/12 00:37:34;;;;;;;;;;;;;;;15.84;87.20;99930.56;6104443;23;19923;-94
2022/05/12 00:39:59;;;;;;;;;;;;;;;15.77;87.10;99933.72;6105105;23;20007;-95
2022/05/12 00:42:25;;;;;;;;;;;;;;;15.70;88.12;99936.84;6128788;23;19924;-94
2022/05/12 00:44:51;;;;;;;;;;;;;;;15.60;87.39;99919.34;6103293;23;19921;-91
2022/05/12 00:47:16;;;;;;;;;;;;;;;15.54;88.00;99926.81;6152083;23;19921;-90
2022/05/12 00:49:41;;;;;;;;;;;;;;;15.51;87.85;99922.19;6152241;23;20019;-89
2022/05/12 00:52:08;;;;;;;;;;;;;;;15.41;88.56;99932.59;6151918;23;19916;-90
2022/05/12 00:54:55;;;;;;;;;;;;;;;15.39;89.15;99934.31;6127645;23;20422;-89
2022/05/12 00:57:23;;;;;;;;;;;;;;;15.35;88.96;99937.28;6126209;23;19923;-89
2022/05/12 00:59:48;;;;;;;;;;;;;;;15.29;89.43;99928.00;6151468;23;19923;-89
2022/05/12 01:02:14;;;;;;;;;;;;;;;15.23;89.87;99934.69;6113656;23;19952;-93
2022/05/12 01:04:41;;;;;;;;;;;;;;;15.19;90.14;99934.09;6104125;23;19917;-93
2022/05/12 01:07:07;;;;;;;;;;;;;;;15.20;90.10;99930.06;6129309;23;19921;-94
2022/05/12 01:09:32;;;;;;;;;;;;;;;15.24;89.63;99927.88;6104268;23;20234;-94
2022/05/12 01:11:58;;;;;;;;;;;;;;;15.21;90.49;99939.97;6105456;23;20326;-95
2022/05/12 01:14:23;;;;;;;;;;;;;;;15.21;90.69;99939.97;6105782;23;19916;-94
2022/05/12 01:16:56;;;;;;;;;;;;;;;15.25;90.25;99937.78;6107187;23;19971;-95
2022/05/12 01:19:29;;;;;;;;;;;;;;;15.26;89.42;99930.97;6106843;23;19928;-90
2022/05/12 01:21:55;;;;;;;;;;;;;;;15.26;89.40;99940.13;6126898;23;19920;-89
2022/05/12 01:24:22;;;;;;;;;;;;;;;15.26;90.07;99942.13;6102346;23;20224;-89
2022/05/12 01:26:47;;;;;;;;;;;;;;;15.23;90.97;99943.88;6125253;23;19917;-89
2022/05/12 01:29:13;;;;;;;;;;;;;;;15.20;90.31;99944.03;6103114;23;19919;-90
2022/05/12 01:31:38;;;;;;;;;;;;;;;15.10;91.89;99950.88;6103093;23;19920;-90
2022/05/12 01:34:05;;;;;;;;;;;;;;;15.02;92.75;99941.28;6127328;23;19919;-89
2022/05/12 01:36:30;;;;;;;;;;;;;;;15.01;92.43;99939.72;6128633;23;19917;-89
2022/05/12 01:38:56;;;;;;;;;;;;;;;15.04;91.38;99944.41;6128186;23;20373;-90
2022/05/12 01:41:22;;;;;;;;;;;;;;;15.02;92.27;99939.28;6132270;23;19921;-95
2022/05/12 01:43:47;;;;;;;;;;;;;;;14.96;92.25;99943.19;6108925;23;19919;-95
2022/05/12 01:46:13;;;;;;;;;;;;;;;14.92;91.77;99929.38;6110206;23;19990;-96
2022/05/12 01:48:38;;;;;;;;;;;;;;;14.86;91.65;99937.59;6107765;23;19921;-94
2022/05/12 01:51:04;;;;;;;;;;;;;;;14.82;92.13;99939.78;6110285;23;19913;-95
2022/05/12 01:53:30;;;;;;;;;;;;;;;14.78;92.28;99939.16;6108249;23;19923;-95
2022/05/12 01:55:56;;;;;;;;;;;;;;;14.77;91.84;99937.59;6107766;23;19916;-95
2022/05/12 01:58:22;;;;;;;;;;;;;;;14.74;92.43;99934.97;6104742;23;20496;-90
2022/05/12 02:00:47;;;;;;;;;;;;;;;14.72;93.01;99940.28;6102604;23;19917;-89
2022/05/12 02:03:13;;;;;;;;;;;;;;;14.77;91.98;99943.19;6127156;23;19928;-89
2022/05/12 02:05:39;;;;;;;;;;;;;;;14.76;92.64;99941.63;6104974;23;19921;-89
2022/05/12 02:08:05;;;;;;;;;;;;;;;14.85;92.20;99938.06;6126602;23;19916;-89
2022/05/12 02:10:31;;;;;;;;;;;;;;;14.82;92.13;99937.00;6104154;23;20427;-89
2022/05/12 02:12:57;;;;;;;;;;;;;;;14.79;91.71;99939.94;6103931;23;19919;-89
2022/05/12 02:15:22;;;;;;;;;;;;;;;14.81;91.91;99943.81;6128149;23;20239;-89
2022/05/12 02:17:49;;;;;;;;;;;;;;;14.72;92.12;99946.59;6107375;23;19934;-95
2022/05/12 02:20:15;;;;;;;;;;;;;;;14.69;91.81;99949.56;6129754;23;19916;-88
2022/05/12 02:22:41;;;;;;;;;;;;;;;14.72;90.96;99934.69;6128088;23;19943;-89
2022/05/12 02:25:06;;;;;;;;;;;;;;;14.73;91.60;99948.16;6104514;23;19983;-88
2022/05/12 02:27:32;;;;;;;;;;;;;;;14.73;91.38;99948.16;6103768;23;19917;-88
2022/05/12 02:29:58;;;;;;;;;;;;;;;14.70;91.82;99949.09;6103930;23;19923;-90
2022/05/12 02:32:23;;;;;;;;;;;;;;;14.73;91.14;99948.16;6104965;23;20021;-90
2022/05/12 02:34:48;;;;;;;;;;;;;;;14.66;90.61;99948.50;6102909;23;20295;-89
2022/05/12 02:37:14;;;;;;;;;;;;;;;14.60;91.84;99944.00;6128269;23;20769;-93
2022/05/12 02:39:40;;;;;;;;;;;;;;;14.44;92.80;99948.66;6107067;23;19913;-95
2022/05/12 02:42:07;;;;;;;;;;;;;;;14.43;92.14;99943.56;6106344;23;19943;-95
2022/05/12 02:44:33;;;;;;;;;;;;;;;14.42;91.49;99947.56;6133078;23;19999;-95
2022/05/12 02:46:58;;;;;;;;;;;;;;;14.31;92.84;99944.44;6133401;23;19923;-94
2022/05/12 02:49:24;;;;;;;;;;;;;;;14.26;93.71;99945.06;6132559;23;19923;-96
2022/05/12 02:51:49;;;;;;;;;;;;;;;14.20;95.60;99944.13;6159424;23;20349;-95
2022/05/12 02:54:15;;;;;;;;;;;;;;;14.13;96.75;99944.44;6160231;23;19917;-89
2022/05/12 02:56:41;;;;;;;;;;;;;;;14.13;96.39;99944.44;6159723;23;19917;-94
2022/05/12 02:59:06;;;;;;;;;;;;;;;14.14;96.23;99943.19;6132394;23;19951;-95
2022/05/12 03:01:32;;;;;;;;;;;;;;;14.09;97.00;99952.94;6107852;23;19984;-95
2022/05/12 03:03:57;;;;;;;;;;;;;;;14.10;96.81;99959.31;6155569;23;19947;-95
2022/05/12 03:06:23;;;;;;;;;;;;;;;14.09;96.85;99957.75;6158998;23;19928;-94
2022/05/12 03:08:48;;;;;;;;;;;;;;;14.04;96.94;99964.72;6182092;23;19916;-95
2022/05/12 03:11:14;;;;;;;;;;;;;;;14.05;96.33;99965.50;6156325;23;19916;-95
2022/05/12 03:13:39;;;;;;;;;;;;;;;14.03;95.98;99955.56;6149947;23;19921;-88
2022/05/12 03:16:05;;;;;;;;;;;;;;;14.01;96.46;99960.06;6128090;23;19987;-89
2022/05/12 03:18:30;;;;;;;;;;;;;;;14.00;97.35;99959.28;6127667;23;19940;-88
2022/05/12 03:20:56;;;;;;;;;;;;;;;14.05;96.08;99966.25;6127533;23;19916;-88
2022/05/12 03:23:24;;;;;;;;;;;;;;;14.06;95.63;99967.81;6103417;23;19913;-89
2022/05/12 03:25:51;;;;;;;;;;;;;;;14.00;95.93;99969.66;6103659;23;19916;-88
2022/05/12 03:28:16;;;;;;;;;;;;;;;13.93;96.91;99969.97;6152140;23;19919;-88
2022/05/12 03:30:42;;;;;;;;;;;;;;;13.91;96.93;99964.84;6150465;23;19988;-88
2022/05/12 03:33:07;;;;;;;;;;;;;;;13.96;95.75;99975.38;6127963;23;19979;-95
2022/05/12 03:35:33;;;;;;;;;;;;;;;13.96;97.04;99972.59;6128287;23;19920;-89
2022/05/12 03:37:58;;;;;;;;;;;;;;;13.99;96.42;99971.66;6152490;23;20294;-88
2022/05/12 03:40:24;;;;;;;;;;;;;;;13.98;98.52;99978.50;6150457;23;20246;-88
2022/05/12 03:42:50;;;;;;;;;;;;;;;14.01;98.12;99983.16;6127407;23;19920;-89
2022/05/12 03:45:16;;;;;;;;;;;;;;;14.02;98.04;99990.28;6127704;23;19936;-87
2022/05/12 03:47:44;;;;;;;;;;;;;;;13.99;97.08;99980.03;6125751;23;20331;-88
2022/05/12 03:50:11;;;;;;;;;;;;;;;14.02;97.47;99993.09;6151554;23;19979;-88
2022/05/12 03:52:37;;;;;;;;;;;;;;;14.05;98.16;99985.00;6126297;23;19923;-88
2022/05/12 03:55:04;;;;;;;;;;;;;;;14.08;98.60;99993.22;6125852;23;19920;-88
2022/05/12 03:57:29;;;;;;;;;;;;;;;14.02;98.01;99995.88;6127308;23;20255;-88
2022/05/12 03:59:55;;;;;;;;;;;;;;;14.02;98.63;100000.66;6101468;23;19931;-89
2022/05/12 04:02:20;;;;;;;;;;;;;;;14.01;99.16;99999.88;6126903;23;19916;-88
2022/05/12 04:04:46;;;;;;;;;;;;;;;13.98;98.82;100000.81;6101921;23;19920;-88
2022/05/12 04:07:12;;;;;;;;;;;;;;;13.96;98.97;99997.69;6125846;23;19916;-89
2022/05/12 04:09:38;;;;;;;;;;;;;;;13.98;98.87;99995.25;6152852;23;19925;-89
2022/05/12 04:12:05;;;;;;;;;;;;;;;14.02;98.54;100006.25;6103123;23;19917;-93
2022/05/12 04:14:30;;;;;;;;;;;;;;;14.03;98.52;100002.97;6127679;23;20019;-89
2022/05/12 04:16:56;;;;;;;;;;;;;;;14.05;98.82;100004.53;6102622;23;20335;-89
2022/05/12 04:19:21;;;;;;;;;;;;;;;14.08;98.76;100004.38;6152360;23;19916;-89
2022/05/12 04:21:48;;;;;;;;;;;;;;;14.08;99.72;100004.38;6128838;23;20406;-89
2022/05/12 04:24:13;;;;;;;;;;;;;;;14.07;99.72;100002.84;6127907;23;19970;-90
2022/05/12 04:26:39;;;;;;;;;;;;;;;14.05;99.18;100005.31;6152502;23;20331;-89
2022/05/12 04:29:04;;;;;;;;;;;;;;;14.07;98.65;100007.66;6127010;23;19917;-89
2022/05/12 04:31:30;;;;;;;;;;;;;;;14.08;98.90;100009.97;6126194;23;19920;-88
2022/05/12 04:36:39;;;;;;;;;;;;;;;14.14;98.63;100007.34;6159853;23;19923;-95
2022/05/12 04:39:06;;;;;;;;;;;;;;;14.18;98.09;100008.75;6106885;23;19964;-94
2022/05/12 04:41:31;;;;;;;;;;;;;;;14.25;97.95;100007.66;6133534;23;19923;-95
2022/05/12 04:43:58;;;;;;;;;;;;;;;14.26;98.33;100010.00;6130888;23;19920;-95
2022/05/12 04:46:24;;;;;;;;;;;;;;;14.31;98.53;100008.63;6154566;23;20375;-95
2022/05/12 04:48:50;;;;;;;;;;;;;;;14.26;99.06;100007.22;6107283;23;19916;-95
2022/05/12 04:51:15;;;;;;;;;;;;;;;14.27;99.66;100010.78;6132583;23;19921;-86
2022/05/12 04:53:40;;;;;;;;;;;;;;;14.31;100.00;100022.56;6150536;23;19916;-89
2022/05/12 04:56:06;;;;;;;;;;;;;;;14.40;100.00;100014.22;6123491;23;19940;-92
2022/05/12 04:58:31;;;;;;;;;;;;;;;14.55;99.60;100017.19;6150370;23;19916;-91
2022/05/12 05:00:56;;;;;;;;;;;;;;;14.61;99.18;100018.13;6151251;23;19917;-90
2022/05/12 05:03:22;;;;;;;;;;;;;;;14.68;99.26;100018.59;6151894;23;20246;-91
2022/05/12 05:05:48;;;;;;;;;;;;;;;14.73;98.67;100020.75;6153611;23;19916;-90
2022/05/12 05:08:14;;;;;;;;;;;;;;;14.74;98.22;100016.72;6126828;23;20004;-86
2022/05/12 05:10:39;;;;;;;;;;;;;;;14.81;97.98;100026.81;6152517;23;19913;-86
2022/05/12 05:13:05;;;;;;;;;;;;;;;14.86;97.62;100028.97;6151860;23;19924;-87
2022/05/12 05:15:30;;;;;;;;;;;;;;;14.98;97.28;100019.66;6126573;23;19920;-87
2022/05/12 05:17:56;;;;;;;;;;;;;;;15.14;96.98;100019.31;6150628;23;19916;-87
2022/05/12 05:20:22;;;;;;;;;;;;;;;15.34;96.04;100027.97;6151894;23;19921;-87
2022/05/12 05:22:48;;;;;;;;;;;;;;;15.57;95.08;100036.94;6151365;23;19925;-86
2022/05/12 05:25:14;;;;;;;;;;;;;;;15.78;93.44;100033.91;6152075;23;19917;-86
2022/05/12 05:27:40;;;;;;;;;;;;;;;15.98;92.07;100049.34;6152180;23;19971;-91
2022/05/12 05:30:09;;;;;;;;;;;;;;;16.14;90.86;100032.94;6151482;23;21485;-91
2022/05/12 05:32:34;;;;;;;;;;;;;;;16.33;90.53;100042.00;6153782;23;19964;-91
2022/05/12 05:35:00;;;;;;;;;;;;;;;16.49;89.00;100041.59;6151577;23;19921;-91
2022/05/12 05:37:25;;;;;;;;;;;;;;;16.68;87.69;100040.22;6150581;23;19916;-92
2022/05/12 05:39:50;;;;;;;;;;;;;;;16.93;86.91;100035.34;6152656;23;20357;-92
2022/05/12 05:42:17;;;;;;;;;;;;;;;17.13;85.30;100036.25;6151612;23;19916;-91
2022/05/12 05:44:43;;;;;;;;;;;;;;;17.24;84.44;100046.88;6153402;23;19923;-91
2022/05/12 05:47:08;;;;;;;;;;;;;;;17.43;84.01;100039.81;6153512;23;20261;-92
2022/05/12 05:49:35;;;;;;;;;;;;;;;17.57;82.51;100047.50;6152114;23;20003;-87
2022/05/12 05:54:44;;;;;;;;;;;;;;;17.99;81.44;100038.72;6150707;23;19924;-87
2022/05/12 05:57:10;;;;;;;;;;;;;;;18.18;79.91;100034.41;6150014;23;20196;-87
2022/05/12 05:59:35;;;;;;;;;;;;;;;18.34;78.58;100030.28;6152577;23;20042;-87
2022/05/12 06:02:01;;;;;;;;;;;;;;;18.54;78.29;100037.97;6150818;23;19917;-87
2022/05/12 06:04:27;;;;;;;;;;;;;;;18.82;76.80;100038.28;6148082;23;19949;-90
2022/05/12 06:06:53;;;;;;;;;;;;;;;19.04;75.92;100038.56;6151201;23;19916;-91
2022/05/12 06:09:19;;;;;;;;;;;;;;;19.10;72.68;100042.97;6149690;23;19988;-87
2022/05/12 06:11:46;;;;;;;;;;;;;;;19.17;72.69;100033.28;6151251;23;19945;-87
2022/05/12 06:14:11;;;;;;;;;;;;;;;19.01;72.26;100042.34;6151057;23;19916;-87
2022/05/12 06:16:36;;;;;;;;;;;;;;;18.99;73.41;100053.31;6126066;23;19978;-87
2022/05/12 06:19:02;;;;;;;;;;;;;;;19.24;74.08;100048.97;6154141;23;19913;-87
2022/05/12 06:21:28;;;;;;;;;;;;;;;19.42;72.20;100048.63;6155303;23;19976;-87
2022/05/12 06:23:53;;;;;;;;;;;;;;;19.59;69.43;100051.63;6153187;23;19912;-87
2022/05/12 06:26:20;;;;;;;;;;;;;;;19.65;69.78;100046.81;6153771;23;19992;-87
2022/05/12 06:28:46;;;;;;;;;;;;;;;19.76;69.71;100058.16;6128804;23;19983;-87
2022/05/12 06:31:19;;;;;;;;;;;;;;;19.99;69.47;100063.44;6153257;23;20327;-87
2022/05/12 06:33:45;;;;;;;;;;;;;;;20.05;68.96;100059.91;6153405;23;19971;-87
2022/05/12 06:36:10;;;;;;;;;;;;;;;20.10;67.94;100057.09;6153291;23;19913;-87
2022/05/12 06:38:36;;;;;;;;;;;;;;;20.11;68.03;100064.28;6154873;23;19932;-87
2022/05/12 06:41:03;;;;;;;;;;;;;;;20.47;68.07;100068.38;6153166;23;19921;-87
2022/05/12 06:43:29;;;;;;;;;;;;;;;20.78;66.72;100081.59;6153384;23;19912;-92
2022/05/12 06:45:55;;;;;;;;;;;;;;;21.10;64.81;100085.03;6155123;23;19979;-92
2022/05/12 06:48:21;;;;;;;;;;;;;;;21.34;65.27;100080.50;6154985;23;19924;-93
2022/05/12 06:50:47;;;;;;;;;;;;;;;21.38;63.91;100083.84;6153698;23;19916;-91
2022/05/12 06:53:13;;;;;;;;;;;;;;;21.68;64.57;100072.06;6154206;23;19967;-92
2022/05/12 06:55:38;;;;;;;;;;;;;;;21.94;62.56;100064.13;6154889;23;19916;-92
2022/05/12 06:58:03;;;;;;;;;;;;;;;22.24;61.29;100062.28;6154495;23;19963;-92
2022/05/12 07:00:29;;;;;;;;;;;;;;;22.49;60.55;100070.94;6153437;23;20370;-92
2022/05/12 07:02:54;;;;;;;;;;;;;;;22.67;59.91;100057.03;6154398;23;19924;-93
2022/05/12 07:05:21;;;;;;;;;;;;;;;22.96;58.01;100057.69;6153674;23;19924;-87
2022/05/12 07:07:47;;;;;;;;;;;;;;;23.06;58.57;100053.25;6128803;23;20290;-87
2022/05/12 07:10:13;;;;;;;;;;;;;;;22.94;57.32;100068.75;6154171;23;19912;-86
2022/05/12 07:12:41;;;;;;;;;;;;;;;22.84;58.82;100065.47;6153411;23;20043;-86
2022/05/12 07:15:07;;;;;;;;;;;;;;;22.93;58.91;100059.47;6152757;23;19913;-87
2022/05/12 07:17:33;;;;;;;;;;;;;;;23.08;58.26;100062.78;6154819;23;19999;-87
2022/05/12 07:28:15;;;;;;;;;;;;;;;23.46;58.49;100065.88;6152731;23;19921;-93
2022/05/12 07:33:25;;;;;;;;;;;;;;;23.83;58.20;100063.28;6153199;23;19980;-92
2022/05/12 07:35:50;;;;;;;;;;;;;;;23.91;57.64;100064.22;6154585;23;19917;-93
2022/05/12 07:38:16;;;;;;;;;;;;;;;24.16;58.63;100070.72;6152750;23;19955;-92
2022/05/12 07:40:41;;;;;;;;;;;;;;;24.23;57.79;100067.28;6154517;23;19925;-91
2022/05/12 07:43:07;;;;;;;;;;;;;;;24.25;57.44;100072.44;6128074;23;19923;-92
2022/05/12 07:45:32;;;;;;;;;;;;;;;24.49;56.51;100073.22;6155418;23;19948;-92
2022/05/12 07:47:58;;;;;;;;;;;;;;;24.54;57.65;100077.28;6154463;23;20302;-92
2022/05/12 07:50:25;;;;;;;;;;;;;;;24.74;56.46;100073.97;6154530;23;19936;-93
2022/05/12 07:52:51;;;;;;;;;;;;;;;24.66;55.45;100078.69;6154542;23;20378;-92
2022/05/12 07:55:16;;;;;;;;;;;;;;;24.86;55.87;100081.06;6153908;23;19920;-92
2022/05/12 07:57:42;;;;;;;;;;;;;;;25.22;54.62;100078.00;6154238;23;19962;-92
2022/05/12 08:00:08;;;;;;;;;;;;;;;25.05;54.86;100076.16;6154135;23;19960;-87
2022/05/12 08:02:37;;;;;;;;;;;;;;;25.26;55.56;100064.25;6152463;23;19963;-87
2022/05/12 08:05:04;;;;;;;;;;;;;;;25.33;54.13;100072.16;6152312;23;20299;-86
2022/05/12 08:07:30;;;;;;;;;;;;;;;25.27;55.49;100074.31;6152963;23;19916;-87
2022/05/12 08:09:57;;;;;;;;;;;;;;;25.46;54.50;100075.81;6153863;23;19982;-87
2022/05/12 08:12:23;;;;;;;;;;;;;;;25.53;53.73;100074.44;6152635;23;19916;-87
2022/05/12 08:14:48;;;;;;;;;;;;;;;25.63;51.70;100078.44;6152187;23;19967;-87
2022/05/12 08:17:14;;;;;;;;;;;;;;;25.71;52.51;100070.81;6153937;23;19917;-87
2022/05/12 08:19:39;;;;;;;;;;;;;;;25.88;52.54;100076.22;6152645;23;19916;-87
2022/05/12 08:22:05;;;;;;;;;;;;;;;26.18;50.65;100070.25;6153801;23;19967;-87
2022/05/12 08:24:30;;;;;;;;;;;;;;;26.49;50.46;100063.72;6151518;23;19917;-86
2022/05/12 08:26:55;;;;;;;;;;;;;;;26.74;49.51;100073.56;6151741;23;19924;-87
2022/05/12 08:29:21;;;;;;;;;;;;;;;26.78;48.97;100076.06;6151970;23;19971;-86
2022/05/12 08:31:46;;;;;;;;;;;;;;;27.09;48.20;100071.59;6150950;23;19923;-87
2022/05/12 08:34:11;;;;;;;;;;;;;;;27.20;48.84;100074.94;6152373;23;19917;-87
2022/05/12 08:36:37;;;;;;;;;;;;;;;27.31;47.41;100077.53;6153085;23;19990;-87
2022/05/12 08:39:03;;;;;;;;;;;;;;;27.16;48.50;100068.06;6153687;23;19924;-93
2022/05/12 08:41:31;;;;;;;;;;;;;;;27.37;48.50;100068.88;6153867;23;19916;-95
2022/05/12 08:43:58;;;;;;;;;;;;;;;27.64;46.56;100061.75;6152480;23;20292;-93
2022/05/12 08:46:25;;;;;;;;;;;;;;;27.80;46.81;100083.38;6152776;23;19913;-95
2022/05/12 08:49:14;;;;;;;;;;;;;;;27.98;46.79;100075.94;6152449;23;19963;-94
2022/05/12 08:51:39;;;;;;;;;;;;;;;28.10;46.64;100071.50;6112405;23;19979;-96
2022/05/12 08:54:07;;;;;;;;;;;;;;;28.15;45.23;100072.66;6153705;23;19916;-96
2022/05/12 08:56:33;;;;;;;;;;;;;;;28.30;45.35;100078.50;6152908;23;20058;-93
2022/05/12 08:58:58;;;;;;;;;;;;;;;28.63;45.59;100074.69;6127086;23;20346;-84
2022/05/12 09:01:36;;;;;;;;;;;;;;;28.78;45.89;100082.63;6152334;23;20339;-84
2022/05/12 09:04:08;;;;;;;;;;;;;;;28.99;44.85;100085.41;6151870;23;19927;-84
2022/05/12 09:06:36;;;;;;;;;;;;;;;28.92;44.30;100086.09;6152269;23;20320;-84
2022/05/12 09:09:03;;;;;;;;;;;;;;;28.91;44.46;100090.31;6153326;23;19927;-84
2022/05/12 09:11:45;;;;;;;;;;;;;;;28.90;43.93;100083.06;6153944;23;19966;-84
2022/05/12 09:14:12;;;;;;;;;;;;;;;29.05;45.28;100083.13;6151524;23;19963;-84
2022/05/12 09:16:38;;;;;;;;;;;;;;;28.96;43.54;100083.66;6153041;23;20331;-92
2022/05/12 09:19:04;;;;;;;;;;;;;;;29.38;43.64;100087.84;6153459;23;19917;-84
2022/05/12 09:21:30;;;;;;;;;;;;;;;29.36;43.61;100084.03;6153755;23;20251;-84
2022/05/12 09:23:58;;;;;;;;;;;;;;;29.41;44.01;100091.66;6153594;23;19916;-84
2022/05/12 09:26:44;;;;;;;;;;;;;;;29.74;44.01;100090.59;6153839;23;19912;-84
2022/05/12 09:29:25;;;;;;;;;;;;;;;29.80;43.31;100093.25;6152991;23;19917;-84
2022/05/12 09:32:15;;;;;;;;;;;;;;;30.04;42.86;100090.66;6153569;23;19917;-84
2022/05/12 09:34:43;;;;;;;;;;;;;;;29.29;44.11;100071.25;6127293;23;19923;-92
2022/05/12 09:37:28;;;;;;;;;;;;;;;29.68;42.46;100080.66;6152512;23;20276;-84
2022/05/12 09:39:57;;;;;;;;;;;;;;;29.96;42.92;100084.16;6151637;23;19940;-83
2022/05/12 09:42:29;;;;;;;;;;;;;;;30.06;38.99;100092.91;6153526;23;19916;-84
2022/05/12 09:45:08;;;;;;;;;;;;;;;29.97;38.92;100082.03;6153237;23;19916;-84
2022/05/12 09:47:34;;;;;;;;;;;;;;;30.19;40.63;100084.16;6152442;23;19916;-84
2022/05/12 09:50:20;;;;;;;;;;;;;;;30.20;40.63;100079.97;6151669;23;19923;-84
2022/05/12 09:52:55;;;;;;;;;;;;;;;30.25;42.09;100086.81;6153331;23;19928;-84
2022/05/12 09:55:27;;;;;;;;;;;;;;;30.30;41.48;100080.13;6153443;23;20231;-84
2022/05/12 09:58:00;;;;;;;;;;;;;;;30.45;41.40;100072.28;6155707;23;19917;-84
2022/05/12 10:00:39;;;;;;;;;;;;;;;30.52;40.98;100071.53;6155383;23;20252;-83
2022/05/12 10:08:53;;;;;;;;;;;;;;;30.51;40.33;100070.00;6155223;23;19964;-83
2022/05/12 10:11:19;;;;;;;;;;;;;;;30.67;41.33;100070.72;6153534;23;20370;-84
2022/05/12 10:13:46;;;;;;;;;;;;;;;30.33;41.09;100070.41;6154050;23;19991;-94
2022/05/12 10:16:11;;;;;;;;;;;;;;;30.49;40.89;100064.09;6130071;23;19991;-94
2022/05/12 10:18:40;;;;;;;;;;;;;;;30.01;41.58;100066.03;6155759;23;19913;-93
2022/05/12 10:21:23;;;;;;;;;;;;;;;30.35;40.68;100067.72;6154202;23;20430;-94
2022/05/12 10:23:48;;;;;;;;;;;;;;;30.60;41.17;100060.06;6154199;23;19927;-94
2022/05/12 10:26:21;;;;;;;;;;;;;;;30.69;40.57;100056.63;6155425;23;19991;-94
2022/05/12 10:28:47;;;;;;;;;;;;;;;30.88;40.96;100054.06;6153993;23;19921;-93
2022/05/12 10:31:12;;;;;;;;;;;;;;;30.47;39.94;100046.75;6155688;23;19963;-94
2022/05/12 10:33:38;;;;;;;;;;;;;;;30.73;40.97;100051.25;6155207;23;19927;-83
2022/05/12 10:36:06;;;;;;;;;;;;;;;31.16;39.61;100050.13;6153644;23;20233;-88
2022/05/12 10:38:35;;;;;;;;;;;;;;;31.50;39.64;100052.44;6153547;23;19960;-87
2022/05/12 10:41:06;;;;;;;;;;;;;;;31.80;38.36;100049.34;6151879;23;19990;-87
2022/05/12 10:43:50;;;;;;;;;;;;;;;31.81;37.39;100055.84;6154050;23;19917;-87
2022/05/12 10:46:34;;;;;;;;;;;;;;;31.12;37.74;100049.00;6153766;23;19968;-88
2022/05/12 10:49:19;;;;;;;;;;;;;;;31.59;37.97;100048.16;6152364;23;20327;-89
2022/05/12 10:51:55;;;;;;;;;;;;;;;31.75;36.97;100040.97;6151344;23;19916;-89
2022/05/12 10:54:27;;;;;;;;;;;;;;;31.69;36.14;100049.06;6153147;23;19971;-88
2022/05/12 10:57:11;;;;;;;;;;;;;;;31.70;36.31;100047.72;6154062;23;19924;-89
2022/05/12 10:59:46;;;;;;;;;;;;;;;31.75;35.56;100061.06;6154752;23;19921;-88
2022/05/12 11:02:14;;;;;;;;;;;;;;;31.84;33.34;100046.06;6127397;23;20259;-90
2022/05/12 11:04:44;;;;;;;;;;;;;;;31.67;32.46;100043.91;6125893;23;19935;-88
2022/05/12 11:07:19;;;;;;;;;;;;;;;31.68;33.83;100033.19;6126068;23;19921;-89
2022/05/12 11:09:48;;;;;;;;;;;;;;;31.77;30.62;100038.28;6153084;23;19917;-89
2022/05/12 11:12:22;;;;;;;;;;;;;;;31.97;30.67;100040.03;6149993;23;19912;-89
2022/05/12 11:15:10;;;;;;;;;;;;;;;32.24;33.05;100032.34;6151656;23;19917;-90
2022/05/12 11:17:45;;;;;;;;;;;;;;;31.37;33.76;100033.41;6151644;23;19924;-89
2022/05/12 11:20:10;;;;;;;;;;;;;;;31.66;33.78;100035.91;6151135;23;19999;-90
2022/05/12 11:22:39;;;;;;;;;;;;;;;31.88;32.41;100040.69;6151571;23;19971;-89
2022/05/12 11:25:16;;;;;;;;;;;;;;;31.85;31.53;100039.75;6151204;23;20435;-90
2022/05/12 11:27:53;;;;;;;;;;;;;;;31.64;32.71;100030.75;6125977;23;19921;-88
2022/05/12 11:30:22;;;;;;;;;;;;;;;31.41;31.23;100028.03;6101471;23;19920;-90
2022/05/12 11:32:57;;;;;;;;;;;;;;;31.55;32.07;100027.75;6127434;23;19919;-89
2022/05/12 11:35:27;;;;;;;;;;;;;;;31.56;31.62;100035.00;6151161;23;20335;-89
2022/05/12 11:37:54;;;;;;;;;;;;;;;31.83;31.51;100027.34;6151852;23;19927;-89
2022/05/12 11:40:40;;;;;;;;;;;;;;;31.99;30.64;100028.72;6150859;23;19995;-90
2022/05/12 11:46:17;;;;;;;;;;;;;;;31.84;30.40;100023.13;6154081;23;19939;-89
2022/05/12 11:48:49;;;;;;;;;;;;;;;32.13;30.38;100018.50;6154526;23;20365;-89
2022/05/12 11:51:41;;;;;;;;;;;;;;;32.36;30.17;100027.63;6152563;23;19971;-89
2022/05/12 11:54:10;;;;;;;;;;;;;;;32.42;29.70;100018.78;6150061;23;20307;-90
2022/05/12 11:56:42;;;;;;;;;;;;;;;32.62;29.08;100006.13;6128254;23;19945;-90
2022/05/12 11:59:20;;;;;;;;;;;;;;;32.68;29.86;100005.84;6153994;23;19917;-89
2022/05/12 12:01:49;;;;;;;;;;;;;;;32.97;29.60;100009.69;6154081;23;20335;-90
2022/05/12 12:04:14;;;;;;;;;;;;;;;32.78;29.99;100015.31;6151959;23;19923;-90
2022/05/12 12:06:40;;;;;;;;;;;;;;;33.00;28.88;100014.25;6152861;23;19952;-89
2022/05/12 12:09:25;;;;;;;;;;;;;;;33.10;27.84;100009.34;6151489;23;19917;-89
2022/05/12 12:11:50;;;;;;;;;;;;;;;33.29;29.08;100003.72;6153292;23;19948;-89
2022/05/12 12:14:36;;;;;;;;;;;;;;;33.23;28.65;100006.13;6152885;23;19927;-89
2022/05/12 12:17:10;;;;;;;;;;;;;;;32.96;28.42;100001.69;6151469;23;19971;-89
2022/05/12 12:19:41;;;;;;;;;;;;;;;32.44;28.63;100003.81;6151347;23;19924;-89
2022/05/12 12:22:26;;;;;;;;;;;;;;;31.85;29.37;99998.84;6152538;23;20254;-89
2022/05/12 12:24:53;;;;;;;;;;;;;;;32.36;28.92;99993.19;6153053;23;19917;-89
2022/05/12 12:27:29;;;;;;;;;;;;;;;32.52;28.48;99988.03;6152010;23;19939;-89
2022/05/12 12:29:55;;;;;;;;;;;;;;;32.82;28.34;99998.41;6152489;23;19917;-89
2022/05/12 12:32:23;;;;;;;;;;;;;;;32.74;28.49;99987.03;6151987;23;19987;-89
2022/05/12 12:34:52;;;;;;;;;;;;;;;33.10;26.93;99989.22;6154013;23;19924;-89
2022/05/12 12:37:47;;;;;;;;;;;;;;;33.19;27.68;99994.28;6152237;23;19955;-89
2022/05/12 12:40:24;;;;;;;;;;;;;;;33.17;27.45;99993.34;6134085;23;19923;-90
2022/05/12 12:42:50;;;;;;;;;;;;;;;33.25;28.32;99999.75;6154311;23;19917;-89
2022/05/12 12:45:17;;;;;;;;;;;;;;;33.02;27.30;99982.81;6153946;23;19919;-89
2022/05/12 12:47:48;;;;;;;;;;;;;;;33.08;26.79;99983.28;6154397;23;19916;-90
2022/05/12 12:50:17;;;;;;;;;;;;;;;33.08;28.58;99977.53;6154042;23;19921;-88
2022/05/12 12:52:45;;;;;;;;;;;;;;;32.85;26.96;99979.97;6154564;23;19913;-89
2022/05/12 12:58:02;;;;;;;;;;;;;;;33.28;26.74;99970.56;6153934;23;19917;-86
2022/05/12 13:00:29;;;;;;;;;;;;;;;33.50;27.01;99967.94;6154309;23;19927;-88
2022/05/12 13:02:59;;;;;;;;;;;;;;;33.54;27.41;99974.00;6152449;23;20331;-88
2022/05/12 13:05:25;;;;;;;;;;;;;;;33.61;27.02;99973.13;6152853;23;20251;-88
2022/05/12 13:07:54;;;;;;;;;;;;;;;33.31;27.06;99970.75;6154712;23;19912;-88
2022/05/12 13:10:19;;;;;;;;;;;;;;;33.40;26.72;99967.16;6153512;23;19924;-88
2022/05/12 13:13:11;;;;;;;;;;;;;;;33.10;27.25;99963.34;6152308;23;19971;-89